Terminal Aerodrome Forecast
Issued by NWS Des Moines, IA

Home | Current Version | Previous Version | Text Only | Print | Product List | Glossary On
Versions: 1 2 3 4 5 6 7 8 9 10 11 12 13 14 15 16 17 18 19
000
FTUS43 KDMX 242133 AAA
TAFALO
TAF AMD
KALO 242133Z 2422/2518 17007KT 5SM BR VCSH OVC025
     FM250000 33012KT P6SM BKN012 BKN100
     FM250400 29007KT P6SM SCT015=

USA.gov is the U.S. government's official web portal to all federal, state and local government web resources and services.